createdAt,value
2017-09-24T00:01:21.273Z,78.10
2017-09-24T00:03:48.306Z,78.00
2017-09-24T00:06:15.187Z,77.90
2017-09-24T00:08:42.229Z,77.70
2017-09-24T00:11:09.162Z,77.70
2017-09-24T00:13:36.205Z,77.90
2017-09-24T00:16:03.156Z,77.90
2017-09-24T00:18:30.096Z,77.90
2017-09-24T00:20:57.076Z,78.10
2017-09-24T00:23:23.972Z,78.30
2017-09-24T00:25:51.762Z,78.50
2017-09-24T00:28:18.737Z,78.50
2017-09-24T00:30:45.803Z,78.30
2017-09-24T00:33:12.865Z,78.70
2017-09-24T00:35:39.941Z,78.80
2017-09-24T00:38:07.047Z,78.70
2017-09-24T00:40:33.981Z,78.50
2017-09-24T00:43:00.969Z,78.40
2017-09-24T00:45:28.733Z,78.90
2017-09-24T00:47:55.780Z,78.90
2017-09-24T00:50:23.519Z,79.60
2017-09-24T00:52:50.489Z,79.60
2017-09-24T00:55:18.326Z,79.90
2017-09-24T00:57:45.383Z,79.90
2017-09-24T01:00:12.445Z,80.00
2017-09-24T01:02:39.497Z,79.90
2017-09-24T01:05:06.559Z,79.90
2017-09-24T01:07:34.265Z,80.00
2017-09-24T01:10:01.349Z,80.00
2017-09-24T01:12:28.286Z,80.10
2017-09-24T01:14:55.389Z,80.00
2017-09-24T01:17:22.296Z,80.00
2017-09-24T01:19:49.352Z,80.10
2017-09-24T01:22:16.392Z,80.30
2017-09-24T01:24:43.522Z,80.20
2017-09-24T01:27:10.530Z,80.30
2017-09-24T01:29:37.571Z,80.20
2017-09-24T01:32:04.653Z,80.10
2017-09-24T01:34:31.678Z,80.10
2017-09-24T01:36:58.904Z,79.90
2017-09-24T01:39:26.089Z,79.90
2017-09-24T01:41:53.294Z,80.10
2017-09-24T01:44:20.330Z,80.20
2017-09-24T01:46:47.329Z,80.30
2017-09-24T01:49:14.325Z,80.50
2017-09-24T01:51:41.354Z,80.30
2017-09-24T01:54:08.461Z,80.30
2017-09-24T01:56:35.497Z,80.60
2017-09-24T01:59:03.308Z,80.40
2017-09-24T02:01:30.264Z,80.40
2017-09-24T02:03:57.228Z,80.60
2017-09-24T02:06:24.233Z,80.50
2017-09-24T02:08:51.168Z,80.40
2017-09-24T02:11:18.098Z,80.40
2017-09-24T02:13:45.856Z,80.30
2017-09-24T02:16:12.764Z,80.20
2017-09-24T02:18:39.691Z,80.20
2017-09-24T02:21:06.736Z,80.40
2017-09-24T02:23:33.665Z,80.00
2017-09-24T02:26:00.661Z,80.20
2017-09-24T02:28:27.618Z,80.20
2017-09-24T02:30:55.356Z,80.10
2017-09-24T02:33:22.349Z,80.40
2017-09-24T02:35:49.235Z,80.20
2017-09-24T02:38:16.186Z,80.40
2017-09-24T02:40:43.245Z,80.80
2017-09-24T02:43:10.133Z,81.00
2017-09-24T02:45:37.113Z,80.80
2017-09-24T02:48:04.125Z,80.50
2017-09-24T02:50:31.790Z,81.50
2017-09-24T02:52:58.725Z,80.90
2017-09-24T02:55:26.457Z,81.60
2017-09-24T02:57:53.395Z,81.10
2017-09-24T03:00:20.452Z,81.30
2017-09-24T03:02:47.356Z,81.50
2017-09-24T03:05:14.281Z,81.40
2017-09-24T03:07:41.253Z,81.80
2017-09-24T03:10:08.883Z,81.60
2017-09-24T03:12:35.863Z,81.60
2017-09-24T03:15:02.839Z,81.40
2017-09-24T03:17:29.740Z,81.60
2017-09-24T03:19:57.478Z,81.90
2017-09-24T03:22:24.396Z,81.90
2017-09-24T03:24:51.396Z,81.70
2017-09-24T03:27:18.422Z,81.90
2017-09-24T03:29:45.352Z,81.60
2017-09-24T03:32:12.336Z,81.60
2017-09-24T03:34:39.336Z,81.20
2017-09-24T03:37:06.244Z,81.10
2017-09-24T03:39:33.339Z,81.10
2017-09-24T03:42:00.311Z,80.90
2017-09-24T03:44:27.518Z,81.20
2017-09-24T03:46:54.438Z,81.30
2017-09-24T03:49:21.359Z,81.10
2017-09-24T03:51:48.419Z,81.60
2017-09-24T03:54:15.404Z,80.80
2017-09-24T03:56:42.342Z,80.80
2017-09-24T03:59:09.340Z,80.90
2017-09-24T04:01:36.342Z,80.90
2017-09-24T04:04:03.362Z,81.20
2017-09-24T04:06:31.049Z,81.70
2017-09-24T04:08:57.964Z,81.70
2017-09-24T04:11:24.981Z,81.90
2017-09-24T04:13:51.926Z,82.00
2017-09-24T04:16:18.864Z,82.50
2017-09-24T04:18:45.823Z,82.90
2017-09-24T04:21:12.767Z,82.80
2017-09-24T04:23:39.833Z,83.00
2017-09-24T04:26:13.441Z,83.10
2017-09-24T04:28:40.607Z,83.10
2017-09-24T04:31:07.536Z,82.80
2017-09-24T04:33:34.527Z,82.80
2017-09-24T04:36:01.464Z,83.00
2017-09-24T04:38:28.401Z,82.90
2017-09-24T04:40:55.372Z,82.90
2017-09-24T04:43:22.397Z,82.70
2017-09-24T04:45:49.425Z,82.60
2017-09-24T04:48:16.317Z,82.50
2017-09-24T04:50:43.203Z,82.30
2017-09-24T04:53:10.221Z,82.30
2017-09-24T04:55:37.199Z,82.20
2017-09-24T04:58:04.196Z,82.00
2017-09-24T05:00:31.224Z,82.20
2017-09-24T05:03:02.050Z,82.00
2017-09-24T05:05:29.068Z,82.60
2017-09-24T05:07:56.036Z,82.30
2017-09-24T05:10:22.972Z,82.60
2017-09-24T05:12:49.904Z,82.60
2017-09-24T05:15:16.879Z,82.40
2017-09-24T05:17:43.760Z,82.00
2017-09-24T05:20:10.738Z,81.90
2017-09-24T05:22:37.643Z,82.10
2017-09-24T05:25:04.514Z,82.20
2017-09-24T05:27:31.494Z,81.90
2017-09-24T05:29:59.357Z,82.20
2017-09-24T05:32:26.333Z,81.90
2017-09-24T05:34:54.091Z,81.60
2017-09-24T05:37:20.987Z,81.60
2017-09-24T05:39:47.860Z,82.10
2017-09-24T05:42:14.797Z,82.00
2017-09-24T05:44:41.702Z,82.10
2017-09-24T05:47:08.656Z,82.00
2017-09-24T05:49:35.525Z,82.20
2017-09-24T05:52:02.404Z,82.10
2017-09-24T05:54:29.399Z,82.30
2017-09-24T05:56:56.360Z,82.10
2017-09-24T05:59:23.319Z,82.00
2017-09-24T06:01:50.268Z,82.20
2017-09-24T06:04:17.138Z,82.20
2017-09-24T06:06:44.012Z,81.70
2017-09-24T06:09:11.849Z,81.20
2017-09-24T06:11:38.783Z,81.40
2017-09-24T06:14:05.704Z,81.10
2017-09-24T06:16:32.567Z,80.50
2017-09-24T06:18:59.428Z,80.80
2017-09-24T06:21:26.360Z,80.60
2017-09-24T06:23:54.213Z,80.30
2017-09-24T06:26:21.184Z,80.20
2017-09-24T06:28:48.084Z,80.90
2017-09-24T06:31:15.003Z,80.90
2017-09-24T06:33:42.630Z,80.70
2017-09-24T06:36:09.609Z,80.70
2017-09-24T06:38:37.967Z,80.50
2017-09-24T06:41:04.880Z,80.30
2017-09-24T06:43:31.865Z,80.00
2017-09-24T06:45:58.783Z,79.40
2017-09-24T06:48:25.795Z,79.40
2017-09-24T06:50:52.757Z,79.60
2017-09-24T06:53:19.671Z,79.50
2017-09-24T06:55:47.285Z,77.90
2017-09-24T06:58:16.927Z,77.90
2017-09-24T07:00:43.914Z,77.30
2017-09-24T07:03:10.926Z,77.00
2017-09-24T07:05:38.617Z,75.70
2017-09-24T07:08:05.509Z,75.70
2017-09-24T07:10:32.383Z,74.50
2017-09-24T07:13:00.092Z,72.50
2017-09-24T07:15:26.978Z,72.50
2017-09-24T07:17:53.960Z,70.70
2017-09-24T07:20:20.841Z,70.10
2017-09-24T07:22:47.763Z,69.70
2017-09-24T07:25:14.731Z,69.50
2017-09-24T07:27:41.626Z,69.20
2017-09-24T07:30:09.316Z,65.70
2017-09-24T07:32:36.264Z,65.70
2017-09-24T07:35:03.188Z,64.80
2017-09-24T07:37:30.195Z,63.70
2017-09-24T07:39:57.079Z,62.30
2017-09-24T07:42:24.783Z,61.30
2017-09-24T07:44:51.753Z,61.20
2017-09-24T07:47:18.718Z,60.90
2017-09-24T07:49:45.666Z,61.60
2017-09-24T07:52:12.605Z,61.30
2017-09-24T07:54:40.251Z,61.50
2017-09-24T07:57:07.106Z,61.80
2017-09-24T07:59:34.072Z,61.00
2017-09-24T08:02:01.680Z,57.00
2017-09-24T08:04:34.644Z,56.80
2017-09-24T08:07:01.592Z,55.90
2017-09-24T08:09:28.455Z,56.30
2017-09-24T08:11:59.113Z,56.00
2017-09-24T08:14:26.086Z,52.90
2017-09-24T08:16:52.988Z,52.60
2017-09-24T08:19:19.938Z,51.80
2017-09-24T08:21:47.103Z,50.40
2017-09-24T08:24:14.462Z,50.20
2017-09-24T08:26:52.072Z,50.10
2017-09-24T08:29:21.986Z,46.90
2017-09-24T08:31:49.285Z,46.10
2017-09-24T08:34:16.258Z,46.90
2017-09-24T08:36:43.803Z,47.40
2017-09-24T08:39:10.704Z,46.00
2017-09-24T08:41:37.603Z,43.40
2017-09-24T08:44:04.717Z,41.90
2017-09-24T08:46:32.636Z,40.40
2017-09-24T08:48:59.563Z,41.30
2017-09-24T08:51:27.528Z,39.80
2017-09-24T08:53:56.728Z,37.60
2017-09-24T08:56:23.712Z,40.50
2017-09-24T08:58:50.661Z,41.60
2017-09-24T09:01:17.519Z,43.30
2017-09-24T09:03:44.449Z,44.40
2017-09-24T09:06:11.392Z,46.10
2017-09-24T09:08:38.316Z,47.30
2017-09-24T09:11:05.199Z,48.40
2017-09-24T09:13:39.294Z,50.90
2017-09-24T09:16:07.111Z,54.00
2017-09-24T09:18:34.222Z,54.30
2017-09-24T09:21:01.172Z,54.00
2017-09-24T09:23:28.163Z,54.00
2017-09-24T09:25:55.157Z,54.70
2017-09-24T09:28:22.481Z,57.20
2017-09-24T09:30:49.625Z,58.40
2017-09-24T09:33:21.625Z,57.40
2017-09-24T09:35:49.047Z,57.40
2017-09-24T09:38:22.884Z,57.00
2017-09-24T09:40:53.063Z,57.30
2017-09-24T09:46:32.427Z,58.80
2017-09-24T09:49:06.191Z,58.30
2017-09-24T09:51:38.975Z,56.30
2017-09-24T09:54:09.055Z,53.00
2017-09-24T09:56:41.197Z,53.10
2017-09-24T09:59:17.098Z,54.30
2017-09-24T10:01:44.706Z,55.10
2017-09-24T10:04:14.165Z,56.20
2017-09-24T10:06:53.560Z,56.20
2017-09-24T10:09:32.321Z,55.30
2017-09-24T10:12:02.450Z,53.40
2017-09-24T10:14:30.424Z,50.10
2017-09-24T10:16:57.753Z,51.10
2017-09-24T10:19:24.748Z,50.30
2017-09-24T10:21:52.552Z,48.40
2017-09-24T10:24:21.684Z,48.40
2017-09-24T10:26:48.841Z,49.20
2017-09-24T10:29:30.139Z,50.30
2017-09-24T10:32:01.346Z,50.60
2017-09-24T10:34:28.353Z,51.50
2017-09-24T10:36:56.133Z,49.20
2017-09-24T10:39:25.876Z,49.20
2017-09-24T10:41:54.840Z,49.10
2017-09-24T10:44:26.168Z,47.10
2017-09-24T10:47:00.787Z,47.00
2017-09-24T10:49:28.667Z,47.80
2017-09-24T10:51:56.481Z,48.30
2017-09-24T10:54:29.562Z,48.20
2017-09-24T10:56:57.198Z,47.20
2017-09-24T10:59:29.545Z,48.70
2017-09-24T11:02:07.625Z,50.10
2017-09-24T11:04:37.653Z,50.20
2017-09-24T11:07:10.888Z,50.90
2017-09-24T11:09:53.210Z,51.00
2017-09-24T11:12:27.099Z,51.00
2017-09-24T11:15:03.267Z,52.10
2017-09-24T11:17:34.926Z,52.40
2017-09-24T11:20:02.553Z,52.30
2017-09-24T11:22:30.246Z,52.00
2017-09-24T11:25:01.314Z,52.50
2017-09-24T11:27:33.940Z,53.60
2017-09-24T11:30:00.834Z,53.60
2017-09-24T11:32:36.102Z,54.10
2017-09-24T11:35:07.304Z,54.00
2017-09-24T11:37:37.806Z,54.20
2017-09-24T11:40:09.078Z,54.20
2017-09-24T11:42:36.023Z,54.20
2017-09-24T11:45:02.976Z,53.90
2017-09-24T11:47:30.605Z,54.30
2017-09-24T11:49:57.553Z,54.30
2017-09-24T11:52:24.564Z,53.90
2017-09-24T11:54:51.771Z,53.70
2017-09-24T11:57:23.483Z,53.90
2017-09-24T11:59:50.345Z,54.40
2017-09-24T12:02:17.305Z,54.30
2017-09-24T12:04:44.186Z,54.60
2017-09-24T12:07:16.140Z,55.40
2017-09-24T12:09:46.085Z,55.40
2017-09-24T12:12:14.078Z,55.80
2017-09-24T12:14:40.973Z,55.80
2017-09-24T12:17:08.643Z,57.50
2017-09-24T12:19:36.331Z,57.50
2017-09-24T12:22:03.425Z,57.40
2017-09-24T12:24:30.353Z,57.80
2017-09-24T12:26:57.232Z,57.60
2017-09-24T12:29:24.204Z,57.30
2017-09-24T12:31:51.888Z,57.40
2017-09-24T12:34:18.752Z,57.40
2017-09-24T12:36:45.731Z,56.80
2017-09-24T12:39:12.617Z,57.20
2017-09-24T12:41:39.480Z,57.30
2017-09-24T12:44:06.440Z,57.80
2017-09-24T12:46:33.350Z,57.80
2017-09-24T12:49:00.214Z,56.50
2017-09-24T12:51:27.222Z,56.90
2017-09-24T12:53:54.839Z,58.80
2017-09-24T12:56:21.781Z,58.10
2017-09-24T12:58:48.712Z,58.30
2017-09-24T13:01:15.640Z,58.50
2017-09-24T13:03:42.516Z,58.40
2017-09-24T13:06:09.506Z,58.10
2017-09-24T13:08:36.375Z,58.10
2017-09-24T13:11:03.261Z,57.80
2017-09-24T13:13:30.235Z,57.80
2017-09-24T13:15:57.143Z,58.00
2017-09-24T13:18:24.047Z,58.30
2017-09-24T13:20:51.938Z,58.60
2017-09-24T13:23:19.029Z,58.60
2017-09-24T13:25:45.905Z,58.50
2017-09-24T13:28:12.910Z,59.10
2017-09-24T13:30:43.073Z,59.20
2017-09-24T13:33:10.401Z,59.10
2017-09-24T13:35:37.295Z,58.90
2017-09-24T13:38:16.943Z,58.90
2017-09-24T13:40:44.511Z,59.30
2017-09-24T13:43:13.404Z,59.60
2017-09-24T13:45:41.199Z,60.00
2017-09-24T13:48:09.433Z,60.60
2017-09-24T13:50:43.346Z,60.50
2017-09-24T13:53:23.291Z,60.90
2017-09-24T13:55:51.318Z,61.40
2017-09-24T13:58:18.247Z,62.60
2017-09-24T14:00:45.160Z,62.40
2017-09-24T14:03:12.373Z,62.00
2017-09-24T14:05:41.193Z,62.40
2017-09-24T14:08:09.452Z,62.70
2017-09-24T14:10:37.863Z,62.90
2017-09-24T14:13:13.512Z,62.10
2017-09-24T14:15:44.581Z,62.40
2017-09-24T14:18:12.780Z,62.40
2017-09-24T14:20:39.949Z,61.70
2017-09-24T14:23:07.674Z,61.90
2017-09-24T14:25:34.685Z,61.80
2017-09-24T14:28:01.745Z,62.00
2017-09-24T14:30:31.579Z,62.10
2017-09-24T14:32:59.300Z,61.10
2017-09-24T14:35:38.473Z,61.10
2017-09-24T14:38:05.737Z,62.10
2017-09-24T14:40:32.719Z,61.80
2017-09-24T14:42:59.633Z,61.20
2017-09-24T14:45:26.587Z,59.80
2017-09-24T14:47:53.520Z,60.40
2017-09-24T14:50:20.516Z,60.70
2017-09-24T14:52:48.155Z,60.30
2017-09-24T14:55:15.126Z,60.30
2017-09-24T14:57:45.891Z,59.60
2017-09-24T15:00:16.674Z,59.60
2017-09-24T15:02:43.759Z,59.30
2017-09-24T15:05:11.466Z,59.20
2017-09-24T15:07:38.391Z,59.20
2017-09-24T15:10:05.436Z,58.60
2017-09-24T15:12:35.003Z,58.90
2017-09-24T15:15:02.409Z,58.00
2017-09-24T15:17:29.475Z,58.60
2017-09-24T15:19:58.037Z,58.90
2017-09-24T15:22:25.077Z,58.90
2017-09-24T15:24:54.047Z,60.00
2017-09-24T15:27:31.257Z,59.40
2017-09-24T15:29:58.651Z,59.40
2017-09-24T15:32:25.660Z,59.10
2017-09-24T15:35:03.157Z,59.10
2017-09-24T15:37:30.470Z,58.50
2017-09-24T15:39:57.450Z,58.70
2017-09-24T15:42:24.463Z,58.40
2017-09-24T15:44:53.260Z,58.60
2017-09-24T15:47:23.667Z,58.90
2017-09-24T15:49:50.888Z,58.10
2017-09-24T15:52:17.933Z,60.00
2017-09-24T15:54:44.914Z,58.80
2017-09-24T15:57:18.746Z,58.40
2017-09-24T15:59:46.868Z,57.90
2017-09-24T16:02:14.542Z,58.60
2017-09-24T16:04:41.517Z,58.50
2017-09-24T16:07:08.488Z,58.80
2017-09-24T16:09:36.228Z,60.10
2017-09-24T16:12:06.936Z,60.10
2017-09-24T16:14:34.132Z,60.60
2017-09-24T16:17:01.257Z,62.20
2017-09-24T16:19:28.357Z,63.00
2017-09-24T16:21:57.037Z,63.00
2017-09-24T16:24:24.161Z,63.30
2017-09-24T16:26:53.096Z,63.70
2017-09-24T16:29:20.080Z,63.80
2017-09-24T16:31:47.068Z,64.10
2017-09-24T16:34:14.817Z,64.40
2017-09-24T16:36:41.908Z,64.40
2017-09-24T16:39:08.960Z,64.10
2017-09-24T16:41:35.840Z,64.60
2017-09-24T16:44:04.750Z,64.40
2017-09-24T16:46:31.765Z,64.50
2017-09-24T16:48:58.775Z,63.40
2017-09-24T16:51:28.150Z,63.20
2017-09-24T16:53:56.316Z,63.50
2017-09-24T16:56:23.250Z,63.50
2017-09-24T16:58:50.340Z,63.50
2017-09-24T17:01:19.689Z,62.50
2017-09-24T17:03:46.845Z,62.50
2017-09-24T17:06:13.815Z,63.30
2017-09-24T17:08:40.820Z,63.80
2017-09-24T17:11:07.861Z,63.70
2017-09-24T17:13:34.841Z,63.20
2017-09-24T17:16:01.798Z,62.90
2017-09-24T17:18:28.890Z,63.10
2017-09-24T17:20:57.787Z,63.10
2017-09-24T17:23:26.785Z,63.10
2017-09-24T17:25:53.933Z,63.40
2017-09-24T17:28:23.120Z,62.90
2017-09-24T17:30:52.126Z,63.10
2017-09-24T17:33:21.854Z,63.40
2017-09-24T17:35:50.552Z,63.70
2017-09-24T17:38:19.982Z,64.00
2017-09-24T17:40:50.363Z,64.20
2017-09-24T17:43:17.320Z,64.10
2017-09-24T17:45:46.058Z,64.10
2017-09-24T17:48:16.117Z,64.90
2017-09-24T17:50:45.820Z,65.30
2017-09-24T17:53:16.809Z,65.40
2017-09-24T17:55:47.184Z,65.10
2017-09-24T17:58:16.793Z,65.40
2017-09-24T18:00:46.335Z,65.80
2017-09-24T18:03:16.385Z,65.80
2017-09-24T18:05:45.526Z,66.20
2017-09-24T18:08:12.580Z,66.20
2017-09-24T18:10:39.513Z,66.50
2017-09-24T18:13:07.142Z,66.90
2017-09-24T18:15:34.177Z,66.90
2017-09-24T18:18:01.180Z,66.80
2017-09-24T18:20:28.160Z,67.00
2017-09-24T18:22:55.558Z,67.10
2017-09-24T18:25:23.262Z,67.40
2017-09-24T18:27:50.273Z,67.20
2017-09-24T18:30:18.003Z,68.20
2017-09-24T18:32:45.012Z,68.20
2017-09-24T18:35:12.251Z,68.60
2017-09-24T18:37:39.246Z,68.80
2017-09-24T18:40:06.197Z,69.30
2017-09-24T18:42:33.277Z,69.50
2017-09-24T18:45:00.262Z,69.40
2017-09-24T18:47:27.225Z,69.70
2017-09-24T18:49:54.191Z,69.80
2017-09-24T18:52:21.210Z,69.80
2017-09-24T18:54:48.152Z,70.00
2017-09-24T18:57:15.089Z,69.80
2017-09-24T18:59:42.057Z,70.10
2017-09-24T19:02:09.020Z,70.60
2017-09-24T19:04:35.962Z,71.50
2017-09-24T19:07:02.937Z,71.70
2017-09-24T19:09:29.845Z,72.10
2017-09-24T19:11:56.766Z,72.30
2017-09-24T19:14:23.721Z,72.20
2017-09-24T19:16:50.904Z,72.50
2017-09-24T19:19:17.958Z,72.50
2017-09-24T19:21:44.873Z,72.10
2017-09-24T19:24:11.922Z,72.70
2017-09-24T19:26:39.004Z,73.30
2017-09-24T19:29:05.930Z,72.80
2017-09-24T19:31:33.032Z,73.00
2017-09-24T19:34:00.805Z,73.00
2017-09-24T19:36:27.754Z,72.90
2017-09-24T19:38:54.677Z,73.00
2017-09-24T19:41:21.701Z,72.70
2017-09-24T19:43:48.609Z,72.70
2017-09-24T19:46:15.743Z,72.90
2017-09-24T19:48:42.699Z,72.90
2017-09-24T19:51:09.634Z,73.10
2017-09-24T19:53:37.311Z,73.20
2017-09-24T19:56:04.342Z,73.10
2017-09-24T19:58:31.312Z,73.40
2017-09-24T20:00:58.260Z,73.30
2017-09-24T20:03:25.154Z,73.60
2017-09-24T20:05:52.125Z,73.50
2017-09-24T20:08:19.078Z,73.70
2017-09-24T20:10:46.052Z,73.50
2017-09-24T20:13:12.985Z,73.60
2017-09-24T20:15:39.996Z,73.60
2017-09-24T20:18:07.037Z,73.80
2017-09-24T20:20:33.912Z,73.80
2017-09-24T20:23:01.093Z,74.10
2017-09-24T20:25:27.999Z,73.90
2017-09-24T20:27:54.952Z,73.70
2017-09-24T20:30:22.717Z,74.10
2017-09-24T20:32:49.661Z,74.10
2017-09-24T20:35:31.209Z,74.10
2017-09-24T20:37:58.730Z,74.10
2017-09-24T20:40:25.723Z,74.40
2017-09-24T20:42:52.631Z,74.20
2017-09-24T20:45:19.508Z,74.50
2017-09-24T20:47:46.446Z,74.50
2017-09-24T20:50:13.471Z,74.70
2017-09-24T20:52:40.462Z,74.70
2017-09-24T20:55:07.441Z,74.80
2017-09-24T20:57:35.220Z,74.90
2017-09-24T21:00:02.212Z,75.00
2017-09-24T21:02:29.252Z,75.10
2017-09-24T21:04:56.229Z,75.10
2017-09-24T21:07:24.622Z,74.60
2017-09-24T21:09:52.627Z,75.40
2017-09-24T21:12:19.660Z,75.60
2017-09-24T21:14:58.155Z,75.80
2017-09-24T21:17:35.964Z,75.10
2017-09-24T21:20:15.993Z,75.30
2017-09-24T21:25:25.079Z,75.10
2017-09-24T21:28:04.603Z,75.70
2017-09-24T21:30:48.853Z,76.30
2017-09-24T21:33:29.650Z,75.60
2017-09-24T21:35:57.970Z,75.80
2017-09-24T21:38:24.935Z,75.80
2017-09-24T21:40:51.810Z,75.60
2017-09-24T21:43:18.802Z,76.20
2017-09-24T21:45:45.720Z,76.00
2017-09-24T21:48:12.668Z,75.70
2017-09-24T21:50:39.553Z,76.10
2017-09-24T21:53:06.420Z,76.60
2017-09-24T21:55:33.436Z,75.90
2017-09-24T21:58:00.363Z,76.10
2017-09-24T22:00:27.529Z,75.90
2017-09-24T22:02:54.873Z,76.00
2017-09-24T22:05:22.417Z,75.80
2017-09-24T22:07:49.339Z,76.30
2017-09-24T22:10:16.324Z,76.20
2017-09-24T22:12:43.233Z,75.80
2017-09-24T22:15:10.858Z,75.80
2017-09-24T22:17:37.808Z,75.70
2017-09-24T22:20:04.711Z,75.90
2017-09-24T22:22:31.724Z,76.00
2017-09-24T22:24:59.533Z,76.40
2017-09-24T22:27:26.468Z,76.30
2017-09-24T22:29:53.365Z,76.80
2017-09-24T22:32:20.305Z,77.20
2017-09-24T22:34:47.260Z,77.40
2017-09-24T22:37:14.176Z,77.50
2017-09-24T22:39:41.034Z,77.30
2017-09-24T22:42:08.067Z,77.60
2017-09-24T22:44:35.002Z,77.40
2017-09-24T22:47:01.923Z,77.30
2017-09-24T22:49:29.679Z,77.70
2017-09-24T22:51:57.339Z,77.50
2017-09-24T22:54:24.970Z,77.30
2017-09-24T22:56:51.981Z,77.20
2017-09-24T22:59:18.948Z,77.50
2017-09-24T23:01:45.977Z,77.80
2017-09-24T23:04:12.952Z,78.40
2017-09-24T23:06:39.827Z,80.30
2017-09-24T23:09:06.698Z,82.10
2017-09-24T23:11:34.420Z,83.40
2017-09-24T23:14:01.310Z,83.30
2017-09-24T23:16:28.180Z,83.50
2017-09-24T23:18:55.111Z,83.60
2017-09-24T23:21:22.096Z,83.10
2017-09-24T23:23:49.105Z,82.80
2017-09-24T23:26:16.000Z,82.80
2017-09-24T23:28:42.963Z,82.20
2017-09-24T23:31:09.953Z,82.00
2017-09-24T23:33:36.970Z,81.80
2017-09-24T23:36:04.583Z,81.20
2017-09-24T23:38:31.457Z,81.20
2017-09-24T23:40:58.423Z,81.10
2017-09-24T23:43:26.047Z,81.80
2017-09-24T23:45:53.052Z,81.80
2017-09-24T23:48:19.919Z,82.40
2017-09-24T23:50:46.790Z,82.50
2017-09-24T23:53:13.753Z,82.50
2017-09-24T23:55:40.621Z,82.50
2017-09-24T23:58:07.609Z,82.10
